createdAt,value
2022-08-22T00:01:36.468Z,100000.78
2022-08-22T00:02:58.379Z,99965.81
2022-08-22T00:03:15.427Z,100001.16
2022-08-22T00:04:09.138Z,99999.53
2022-08-22T00:06:42.030Z,100006.09
2022-08-22T00:09:48.839Z,99995.03
2022-08-22T00:12:23.388Z,99992.34
2022-08-22T00:15:07.621Z,99996.16
2022-08-22T00:17:51.493Z,99993.75
2022-08-22T00:20:28.343Z,99998.50
2022-08-22T00:22:59.804Z,100002.72
2022-08-22T00:25:42.572Z,100000.03
2022-08-22T00:28:23.254Z,99997.69
2022-08-22T00:31:21.078Z,100001.94
2022-08-22T00:33:53.434Z,100000.84
2022-08-22T00:36:25.096Z,100008.19
2022-08-22T00:39:47.826Z,100008.34
2022-08-22T00:42:31.708Z,100018.44
2022-08-22T00:45:17.879Z,100007.59
2022-08-22T00:48:09.190Z,100010.38
2022-08-22T00:50:51.301Z,100014.69
2022-08-22T00:53:39.613Z,100011.88
2022-08-22T00:56:21.721Z,100012.16
2022-08-22T00:58:57.552Z,100018.44
2022-08-22T01:01:34.727Z,100010.66
2022-08-22T01:04:33.223Z,100009.44
2022-08-22T01:07:03.249Z,100007.00
2022-08-22T01:09:45.284Z,100014.22
2022-08-22T01:12:32.874Z,100016.56
2022-08-22T01:15:09.611Z,100009.34
2022-08-22T01:17:39.361Z,100009.31
2022-08-22T01:21:03.284Z,100002.53
2022-08-22T01:23:40.468Z,99997.72
2022-08-22T01:26:44.928Z,100002.56
2022-08-22T01:29:28.607Z,100005.22
2022-08-22T01:32:01.645Z,100011.22
2022-08-22T01:34:53.304Z,100011.66
2022-08-22T01:37:26.079Z,100012.16
2022-08-22T01:39:55.947Z,100004.31
2022-08-22T01:42:41.839Z,100011.31
2022-08-22T01:45:08.840Z,100014.59
2022-08-22T01:47:40.649Z,100013.53
2022-08-22T01:50:56.926Z,100015.31
2022-08-22T01:53:25.246Z,100009.22
2022-08-22T01:56:07.473Z,100019.63
2022-08-22T01:58:36.672Z,100009.69
2022-08-22T02:01:06.284Z,100006.06
2022-08-22T02:03:43.142Z,100004.41
2022-08-22T02:06:25.053Z,100000.25
2022-08-22T02:09:27.310Z,99997.41
2022-08-22T02:12:05.529Z,99997.41
2022-08-22T02:14:51.385Z,99996.25
2022-08-22T02:17:35.812Z,99996.84
2022-08-22T02:20:20.393Z,99994.84
2022-08-22T02:23:13.496Z,99991.94
2022-08-22T02:25:51.480Z,99981.66
2022-08-22T02:28:38.532Z,99988.78
2022-08-22T02:31:21.968Z,99986.94
2022-08-22T02:34:01.387Z,99990.16
2022-08-22T02:36:45.564Z,99992.19
2022-08-22T02:39:34.083Z,100001.88
2022-08-22T02:42:27.894Z,100007.59
2022-08-22T02:45:03.705Z,100003.53
2022-08-22T02:47:41.226Z,100006.91
2022-08-22T02:50:19.703Z,100007.13
2022-08-22T02:52:52.835Z,99994.72
2022-08-22T02:55:54.940Z,99992.78
2022-08-22T02:58:31.118Z,99990.59
2022-08-22T03:00:57.908Z,99985.59
2022-08-22T03:03:31.807Z,99980.72
2022-08-22T03:06:28.195Z,99979.22
2022-08-22T03:09:07.219Z,99979.91
2022-08-22T03:11:37.748Z,99980.00
2022-08-22T03:14:16.737Z,99980.38
2022-08-22T03:16:50.830Z,99966.38
2022-08-22T03:19:20.458Z,99971.78
2022-08-22T03:21:50.395Z,99972.31
2022-08-22T03:24:24.779Z,99972.06
2022-08-22T03:27:06.559Z,99972.53
2022-08-22T03:29:37.086Z,99967.16
2022-08-22T03:32:16.801Z,99964.47
2022-08-22T03:34:55.951Z,99959.88
2022-08-22T03:37:32.052Z,99960.16
2022-08-22T03:40:35.292Z,99960.63
2022-08-22T03:43:30.144Z,99953.88
2022-08-22T03:46:18.795Z,99953.19
2022-08-22T03:49:17.687Z,99948.41
2022-08-22T03:51:53.648Z,99937.03
2022-08-22T03:54:38.927Z,99924.31
2022-08-22T03:57:29.809Z,99934.38
2022-08-22T03:59:56.668Z,99921.19
2022-08-22T04:02:50.115Z,99930.44
2022-08-22T04:05:20.017Z,99931.75
2022-08-22T04:08:00.211Z,99932.16
2022-08-22T04:10:27.157Z,99936.69
2022-08-22T04:12:53.904Z,99932.44
2022-08-22T04:15:57.441Z,99934.19
2022-08-22T04:18:28.459Z,99935.47
2022-08-22T04:21:18.250Z,99944.09
2022-08-22T04:24:09.724Z,99953.63
2022-08-22T04:26:48.829Z,99952.88
2022-08-22T04:29:22.571Z,99957.28
2022-08-22T04:32:18.496Z,99958.81
2022-08-22T04:34:56.287Z,99956.00
2022-08-22T04:37:26.228Z,99964.53
2022-08-22T04:40:00.583Z,99962.56
2022-08-22T04:42:42.072Z,99957.38
2022-08-22T04:45:23.181Z,99951.38
2022-08-22T04:47:56.533Z,99957.75
2022-08-22T04:50:31.263Z,99952.63
2022-08-22T04:53:12.431Z,99943.13
2022-08-22T04:55:55.907Z,99942.81
2022-08-22T04:58:22.549Z,99946.66
2022-08-22T05:00:52.399Z,99955.88
2022-08-22T05:03:19.143Z,99957.63
2022-08-22T05:05:45.915Z,99959.50
2022-08-22T05:08:13.749Z,99957.84
2022-08-22T05:10:41.630Z,99952.72
2022-08-22T05:13:11.263Z,99955.53
2022-08-22T05:15:39.144Z,99944.66
2022-08-22T05:18:07.388Z,99946.00
2022-08-22T05:20:34.097Z,99947.44
2022-08-22T05:23:03.036Z,99940.44
2022-08-22T05:25:34.705Z,99944.75
2022-08-22T05:28:12.043Z,99937.34
2022-08-22T05:30:38.986Z,99932.06
2022-08-22T05:33:05.585Z,99923.44
2022-08-22T05:35:49.255Z,99921.53
2022-08-22T05:38:18.040Z,99928.69
2022-08-22T05:40:44.841Z,99921.44
2022-08-22T05:43:12.173Z,99922.50
2022-08-22T05:45:39.217Z,99927.19
2022-08-22T05:48:07.903Z,99927.34
2022-08-22T05:50:37.026Z,99931.56
2022-08-22T05:53:15.191Z,99930.50
2022-08-22T05:55:41.944Z,99936.31
2022-08-22T05:58:20.717Z,99929.41
2022-08-22T06:00:49.793Z,99919.56
2022-08-22T06:03:31.411Z,99925.91
2022-08-22T06:05:58.916Z,99946.25
2022-08-22T06:08:35.146Z,99943.66
2022-08-22T06:11:17.385Z,99926.38
2022-08-22T06:14:08.044Z,99930.84
2022-08-22T06:16:37.560Z,99934.88
2022-08-22T06:19:04.208Z,99939.56
2022-08-22T06:21:47.076Z,99939.19
2022-08-22T06:24:16.291Z,99930.44
2022-08-22T06:26:48.227Z,99946.19
2022-08-22T06:29:27.750Z,99945.69
2022-08-22T06:31:54.586Z,99933.94
2022-08-22T06:34:23.931Z,99949.50
2022-08-22T06:36:50.959Z,99952.44
2022-08-22T06:39:24.991Z,99949.09
2022-08-22T06:42:04.986Z,99951.38
2022-08-22T06:44:33.334Z,99940.16
2022-08-22T06:47:01.059Z,99938.06
2022-08-22T06:49:28.023Z,99936.47
2022-08-22T06:51:57.640Z,99941.84
2022-08-22T06:54:24.927Z,99941.03
2022-08-22T06:56:52.033Z,99938.09
2022-08-22T06:59:20.016Z,99936.25
2022-08-22T07:02:07.133Z,99932.25
2022-08-22T07:04:33.969Z,99937.03
2022-08-22T07:07:00.860Z,99936.72
2022-08-22T07:09:37.519Z,99934.44
2022-08-22T07:12:08.783Z,99938.47
2022-08-22T07:14:45.629Z,99933.56
2022-08-22T07:17:17.376Z,99940.34
2022-08-22T07:19:48.099Z,99932.03
2022-08-22T07:22:26.081Z,99932.34
2022-08-22T07:24:55.709Z,99932.03
2022-08-22T07:27:31.884Z,99935.84
2022-08-22T07:30:10.199Z,99939.44
2022-08-22T07:32:57.885Z,99931.28
2022-08-22T07:35:53.372Z,99932.09
2022-08-22T07:38:42.860Z,99926.22
2022-08-22T07:41:18.092Z,99922.09
2022-08-22T07:43:45.935Z,99926.19
2022-08-22T07:46:25.809Z,99916.94
2022-08-22T07:49:09.224Z,99917.69
2022-08-22T07:51:41.667Z,99917.88
2022-08-22T07:54:09.549Z,99929.75
2022-08-22T07:56:44.089Z,99931.47
2022-08-22T07:59:14.376Z,99931.03
2022-08-22T08:01:49.089Z,99927.84
2022-08-22T08:04:17.789Z,99916.91
2022-08-22T08:06:46.623Z,99923.31
2022-08-22T08:09:15.059Z,99922.63
2022-08-22T08:11:42.268Z,99915.44
2022-08-22T08:14:09.095Z,99917.97
2022-08-22T08:17:00.737Z,99910.16
2022-08-22T08:19:27.488Z,99915.69
2022-08-22T08:21:54.881Z,99916.94
2022-08-22T08:24:43.342Z,99912.25
2022-08-22T08:27:50.526Z,99914.34
2022-08-22T08:30:19.431Z,99921.63
2022-08-22T08:32:54.057Z,99924.75
2022-08-22T08:35:42.389Z,99918.78
2022-08-22T08:38:23.626Z,99925.59
2022-08-22T08:40:56.408Z,99922.69
2022-08-22T08:43:41.789Z,99909.72
2022-08-22T08:46:11.457Z,99912.50
2022-08-22T08:48:52.547Z,99912.34
2022-08-22T08:51:25.290Z,99918.91
2022-08-22T08:54:10.532Z,99909.44
2022-08-22T08:56:37.198Z,99916.44
2022-08-22T08:59:10.508Z,99902.66
2022-08-22T09:01:46.271Z,99909.44
2022-08-22T09:04:24.998Z,99909.69
2022-08-22T09:07:03.871Z,99900.25
2022-08-22T09:09:31.924Z,99907.31
2022-08-22T09:12:01.681Z,99902.16
2022-08-22T09:14:28.470Z,99893.28
2022-08-22T09:16:58.146Z,99891.91
2022-08-22T09:19:43.496Z,99889.19
2022-08-22T09:22:30.049Z,99897.06
2022-08-22T09:25:15.335Z,99891.66
2022-08-22T09:27:42.715Z,99886.22
2022-08-22T09:30:11.568Z,99893.00
2022-08-22T09:32:44.114Z,99897.31
2022-08-22T09:35:20.102Z,99888.38
2022-08-22T09:38:07.590Z,99881.88
2022-08-22T09:40:39.950Z,99884.03
2022-08-22T09:43:21.453Z,99876.97
2022-08-22T09:46:07.912Z,99869.88
2022-08-22T09:48:39.612Z,99866.59
2022-08-22T09:51:32.655Z,99861.41
2022-08-22T09:54:31.371Z,99858.91
2022-08-22T09:57:00.823Z,99848.75
2022-08-22T09:59:35.132Z,99844.94
2022-08-22T10:02:15.294Z,99847.50
2022-08-22T10:04:45.952Z,99846.91
2022-08-22T10:07:31.162Z,99842.78
2022-08-22T10:10:01.319Z,99844.66
2022-08-22T10:12:35.172Z,99844.94
2022-08-22T10:15:16.208Z,99847.75
2022-08-22T10:18:00.244Z,99845.50
2022-08-22T10:21:02.620Z,99849.91
2022-08-22T10:23:37.937Z,99841.41
2022-08-22T10:26:38.623Z,99852.28
2022-08-22T10:29:24.375Z,99846.19
2022-08-22T10:31:58.719Z,99845.09
2022-08-22T10:34:31.077Z,99835.84
2022-08-22T10:37:03.985Z,99842.19
2022-08-22T10:39:58.458Z,99834.13
2022-08-22T10:42:27.985Z,99830.81
2022-08-22T10:45:00.918Z,99838.63
2022-08-22T10:47:30.973Z,99834.34
2022-08-22T10:50:10.884Z,99826.16
2022-08-22T10:52:46.115Z,99833.31
2022-08-22T10:55:26.672Z,99834.06
2022-08-22T10:57:53.650Z,99829.50
2022-08-22T11:00:31.257Z,99834.78
2022-08-22T11:03:04.823Z,99830.47
2022-08-22T11:05:48.874Z,99833.16
2022-08-22T11:08:35.956Z,99834.03
2022-08-22T11:11:12.974Z,99823.44
2022-08-22T11:13:42.319Z,99821.56
2022-08-22T11:16:28.522Z,99817.84
2022-08-22T11:19:02.576Z,99818.53
2022-08-22T11:21:29.740Z,99824.56
2022-08-22T11:24:02.410Z,99824.63
2022-08-22T11:26:47.500Z,99823.78
2022-08-22T11:29:14.894Z,99824.41
2022-08-22T11:31:51.958Z,99824.53
2022-08-22T11:34:38.275Z,99827.06
2022-08-22T11:37:17.481Z,99819.50
2022-08-22T11:39:47.168Z,99819.25
2022-08-22T11:42:29.724Z,99809.31
2022-08-22T11:44:57.539Z,99814.66
2022-08-22T11:47:28.076Z,99807.16
2022-08-22T11:50:13.403Z,99819.19
2022-08-22T11:52:40.669Z,99811.50
2022-08-22T11:55:12.807Z,99812.72
2022-08-22T11:57:44.759Z,99811.03
2022-08-22T12:00:15.160Z,99803.81
2022-08-22T12:02:45.467Z,99810.06
2022-08-22T12:05:19.538Z,99814.03
2022-08-22T12:08:11.260Z,99807.94
2022-08-22T12:10:43.645Z,99807.19
2022-08-22T12:13:20.747Z,99795.78
2022-08-22T12:16:01.801Z,99798.75
2022-08-22T12:18:35.591Z,99801.56
2022-08-22T12:21:14.522Z,99810.47
2022-08-22T12:23:48.905Z,99809.41
2022-08-22T12:26:28.628Z,99801.19
2022-08-22T12:29:04.643Z,99808.81
2022-08-22T12:32:01.020Z,99804.44
2022-08-22T12:34:47.494Z,99802.47
2022-08-22T12:37:26.233Z,99803.22
2022-08-22T12:40:09.050Z,99800.06
2022-08-22T12:42:39.167Z,99797.56
2022-08-22T12:45:24.542Z,99795.50
2022-08-22T12:47:55.688Z,99792.25
2022-08-22T12:50:26.285Z,99784.69
2022-08-22T12:52:52.959Z,99786.59
2022-08-22T12:55:19.828Z,99785.28
2022-08-22T12:57:57.167Z,99780.94
2022-08-22T13:00:34.532Z,99782.34
2022-08-22T13:03:09.630Z,99784.75
2022-08-22T13:05:40.881Z,99786.06
2022-08-22T13:08:10.017Z,99783.94
2022-08-22T13:10:36.857Z,99774.78
2022-08-22T13:13:11.927Z,99780.75
2022-08-22T13:15:53.592Z,99771.16
2022-08-22T13:18:29.740Z,99771.09
2022-08-22T13:20:58.589Z,99764.44
2022-08-22T13:23:30.456Z,99764.41
2022-08-22T13:26:32.097Z,99757.81
2022-08-22T13:29:24.552Z,99758.03
2022-08-22T13:31:51.535Z,99762.22
2022-08-22T13:34:30.810Z,99754.69
2022-08-22T13:36:58.909Z,99753.88
2022-08-22T13:39:28.814Z,99748.41
2022-08-22T13:41:56.414Z,99764.50
2022-08-22T13:44:29.283Z,99757.59
2022-08-22T13:47:16.305Z,99749.78
2022-08-22T13:49:44.752Z,99751.56
2022-08-22T13:52:29.422Z,99749.88
2022-08-22T13:55:01.614Z,99753.31
2022-08-22T13:57:31.528Z,99752.38
2022-08-22T14:00:28.552Z,99747.69
2022-08-22T14:03:08.048Z,99754.72
2022-08-22T14:05:37.148Z,99756.94
2022-08-22T14:08:18.964Z,99757.31
2022-08-22T14:10:55.063Z,99754.88
2022-08-22T14:13:24.416Z,99762.63
2022-08-22T14:16:15.043Z,99758.09
2022-08-22T14:18:45.449Z,99756.53
2022-08-22T14:21:33.462Z,99753.91
2022-08-22T14:24:13.812Z,99749.34
2022-08-22T14:26:47.363Z,99744.06
2022-08-22T14:29:16.115Z,99746.56
2022-08-22T14:31:43.214Z,99744.28
2022-08-22T14:34:12.187Z,99736.28
2022-08-22T14:36:55.227Z,99730.63
2022-08-22T14:39:42.892Z,99736.97
2022-08-22T14:42:22.779Z,99736.41
2022-08-22T14:45:08.679Z,99732.22
2022-08-22T14:48:29.286Z,99735.13
2022-08-22T14:50:43.388Z,99734.81
2022-08-22T14:53:11.960Z,99737.88
2022-08-22T14:55:39.367Z,99733.25
2022-08-22T14:58:08.931Z,99728.53
2022-08-22T15:00:35.649Z,99736.38
2022-08-22T15:03:09.441Z,99738.09
2022-08-22T15:05:49.925Z,99731.34
2022-08-22T15:08:21.126Z,99727.16
2022-08-22T15:11:04.163Z,99724.63
2022-08-22T15:13:31.323Z,99725.75
2022-08-22T15:16:03.487Z,99729.41
2022-08-22T15:18:35.811Z,99731.59
2022-08-22T15:21:06.828Z,99723.00
2022-08-22T15:23:44.989Z,99714.31
2022-08-22T15:26:33.587Z,99721.09
2022-08-22T15:29:07.745Z,99717.66
2022-08-22T15:31:34.525Z,99711.47
2022-08-22T15:34:08.782Z,99717.50
2022-08-22T15:36:36.056Z,99705.81
2022-08-22T15:39:21.766Z,99710.41
2022-08-22T15:41:48.526Z,99708.19
2022-08-22T15:44:32.967Z,99706.59
2022-08-22T15:47:01.779Z,99708.03
2022-08-22T15:49:29.269Z,99703.66
2022-08-22T15:51:58.900Z,99702.88
2022-08-22T15:54:26.696Z,99709.72
2022-08-22T15:57:10.449Z,99717.03
2022-08-22T15:59:54.306Z,99710.53
2022-08-22T16:02:36.237Z,99708.09
2022-08-22T16:05:09.552Z,99702.69
2022-08-22T16:07:40.524Z,99700.28
2022-08-22T16:10:08.894Z,99701.63
2022-08-22T16:12:43.383Z,99695.94
2022-08-22T16:15:28.789Z,99696.25
2022-08-22T16:17:57.456Z,99693.19
2022-08-22T16:20:24.469Z,99692.44
2022-08-22T16:22:56.944Z,99687.56
2022-08-22T16:25:42.327Z,99689.97
2022-08-22T16:28:19.748Z,99684.34
2022-08-22T16:30:52.352Z,99689.78
2022-08-22T16:33:32.002Z,99685.72
2022-08-22T16:36:15.299Z,99687.06
2022-08-22T16:38:44.041Z,99688.66
2022-08-22T16:41:45.716Z,99682.19
2022-08-22T16:47:36.739Z,99690.06
2022-08-22T16:50:06.567Z,99688.16
2022-08-22T16:52:40.391Z,99684.41
2022-08-22T16:55:27.011Z,99676.78
2022-08-22T16:58:05.999Z,99686.31
2022-08-22T17:00:36.498Z,99686.00
2022-08-22T17:03:21.653Z,99688.22
2022-08-22T17:05:55.197Z,99689.03
2022-08-22T17:08:25.011Z,99689.28
2022-08-22T17:10:57.668Z,99680.06
2022-08-22T17:13:32.872Z,99686.56
2022-08-22T17:16:18.646Z,99681.16
2022-08-22T17:18:45.431Z,99680.88
2022-08-22T17:21:15.487Z,99686.03
2022-08-22T17:23:42.267Z,99673.84
2022-08-22T17:26:27.920Z,99681.97
2022-08-22T17:29:06.757Z,99679.00
2022-08-22T17:31:43.235Z,99671.97
2022-08-22T17:34:18.668Z,99673.59
2022-08-22T17:36:55.192Z,99666.81
2022-08-22T17:39:56.035Z,99666.81
2022-08-22T17:42:41.502Z,99664.06
2022-08-22T17:45:10.955Z,99666.78
2022-08-22T17:47:43.416Z,99666.50
2022-08-22T17:50:13.094Z,99669.78
2022-08-22T17:53:02.335Z,99667.31
2022-08-22T17:55:31.402Z,99670.31
2022-08-22T17:58:01.261Z,99670.88
2022-08-22T18:00:30.776Z,99671.38
2022-08-22T18:03:20.788Z,99673.03
2022-08-22T18:05:47.533Z,99676.53
2022-08-22T18:11:21.116Z,99669.50
2022-08-22T18:14:06.126Z,99673.59
2022-08-22T18:16:35.021Z,99671.94
2022-08-22T18:19:04.668Z,99667.88
2022-08-22T18:21:33.658Z,99671.94
2022-08-22T18:24:09.465Z,99676.28
2022-08-22T18:26:36.181Z,99677.91
2022-08-22T18:29:17.455Z,99675.75
2022-08-22T18:31:50.240Z,99680.09
2022-08-22T18:34:25.447Z,99675.50
2022-08-22T18:36:59.599Z,99683.09
2022-08-22T18:39:30.677Z,99676.84
2022-08-22T18:42:00.611Z,99683.34
2022-08-22T18:44:29.419Z,99688.22
2022-08-22T18:46:56.774Z,99693.06
2022-08-22T18:49:23.491Z,99693.66
2022-08-22T18:52:12.821Z,99680.63
2022-08-22T18:54:42.380Z,99688.50
2022-08-22T18:57:24.354Z,99692.56
2022-08-22T19:00:17.303Z,99690.94
2022-08-22T19:02:55.693Z,99692.81
2022-08-22T19:05:25.709Z,99691.19
2022-08-22T19:07:56.430Z,99687.69
2022-08-22T19:10:35.152Z,99688.22
2022-08-22T19:13:10.447Z,99684.44
2022-08-22T19:15:56.047Z,99687.41
2022-08-22T19:18:26.086Z,99692.53
2022-08-22T19:21:30.458Z,99692.53
2022-08-22T19:23:57.194Z,99685.25
2022-08-22T19:26:34.870Z,99690.09
2022-08-22T19:29:08.794Z,99690.38
2022-08-22T19:31:42.142Z,99686.31
2022-08-22T19:34:18.894Z,99690.94
2022-08-22T19:36:46.535Z,99674.38
2022-08-22T19:39:31.949Z,99677.66
2022-08-22T19:41:59.660Z,99666.00
2022-08-22T19:44:26.275Z,99669.28
2022-08-22T19:47:11.897Z,99672.78
2022-08-22T19:49:39.708Z,99666.56
2022-08-22T19:52:15.561Z,99669.25
2022-08-22T19:54:57.406Z,99668.69
2022-08-22T19:57:46.312Z,99659.22
2022-08-22T20:00:14.668Z,99653.00
2022-08-22T20:02:50.506Z,99655.75
2022-08-22T20:05:28.851Z,99657.34
2022-08-22T20:08:08.375Z,99653.00
2022-08-22T20:10:53.517Z,99658.97
2022-08-22T20:13:23.043Z,99656.81
2022-08-22T20:16:01.848Z,99655.19
2022-08-22T20:19:07.623Z,99655.72
2022-08-22T20:21:54.873Z,99651.66
2022-08-22T20:24:21.582Z,99649.19
2022-08-22T20:27:12.071Z,99654.59
2022-08-22T20:29:36.401Z,99651.63
2022-08-22T20:32:04.188Z,99654.06
2022-08-22T20:34:32.142Z,99651.09
2022-08-22T20:37:16.113Z,99655.72
2022-08-22T20:39:49.962Z,99657.06
2022-08-22T20:42:25.576Z,99650.56
2022-08-22T20:44:53.750Z,99648.94
2022-08-22T20:47:24.589Z,99644.34
2022-08-22T20:49:52.890Z,99650.31
2022-08-22T20:52:19.499Z,99647.28
2022-08-22T20:54:46.407Z,99642.38
2022-08-22T20:57:16.237Z,99635.91
2022-08-22T20:59:51.005Z,99636.69
2022-08-22T21:02:22.249Z,99634.81
2022-08-22T21:04:48.908Z,99636.69
2022-08-22T21:07:41.585Z,99633.75
2022-08-22T21:10:26.973Z,99626.97
2022-08-22T21:13:14.783Z,99623.94
2022-08-22T21:16:11.136Z,99623.41
2022-08-22T21:18:39.013Z,99615.25
2022-08-22T21:21:07.111Z,99617.44
2022-08-22T21:23:40.946Z,99619.09
2022-08-22T21:26:08.821Z,99623.94
2022-08-22T21:28:37.285Z,99623.34
2022-08-22T21:31:12.934Z,99611.13
2022-08-22T21:33:41.264Z,99615.47
2022-08-22T21:36:08.685Z,99613.03
2022-08-22T21:38:35.394Z,99613.91
2022-08-22T21:41:02.974Z,99606.56
2022-08-22T21:43:31.510Z,99607.66
2022-08-22T21:45:58.199Z,99605.50
2022-08-22T21:48:43.895Z,99601.13
2022-08-22T21:51:29.100Z,99601.91
2022-08-22T21:54:18.393Z,99607.66
2022-08-22T21:56:45.831Z,99603.53
2022-08-22T21:59:21.017Z,99611.16
2022-08-22T22:01:52.127Z,99604.13
2022-08-22T22:04:18.754Z,99598.44
2022-08-22T22:06:45.539Z,99602.44
2022-08-22T22:09:15.156Z,99602.44
2022-08-22T22:11:42.047Z,99603.81
2022-08-22T22:14:08.928Z,99595.44
2022-08-22T22:16:35.798Z,99602.19
2022-08-22T22:19:02.486Z,99599.75
2022-08-22T22:21:29.408Z,99599.25
2022-08-22T22:23:58.429Z,99598.16
2022-08-22T22:26:25.765Z,99601.94
2022-08-22T22:28:53.036Z,99598.16
2022-08-22T22:31:19.677Z,99596.81
2022-08-22T22:33:46.351Z,99597.66
2022-08-22T22:36:14.810Z,99600.09
2022-08-22T22:38:41.766Z,99595.50
2022-08-22T22:41:08.622Z,99594.91
2022-08-22T22:43:35.260Z,99589.25
2022-08-22T22:46:01.963Z,99594.94
2022-08-22T22:48:29.258Z,99592.75
2022-08-22T22:50:56.107Z,99599.25
2022-08-22T22:53:37.987Z,99599.00
2022-08-22T22:56:06.030Z,99598.22
2022-08-22T22:58:35.447Z,99596.59
2022-08-22T23:01:13.019Z,99605.53
2022-08-22T23:03:39.881Z,99601.75
2022-08-22T23:06:13.704Z,99607.19
2022-08-22T23:08:40.484Z,99607.72
2022-08-22T23:11:10.266Z,99605.81
2022-08-22T23:13:37.318Z,99602.03
2022-08-22T23:16:07.699Z,99604.72
2022-08-22T23:18:34.517Z,99593.38
2022-08-22T23:21:11.141Z,99596.91
2022-08-22T23:23:37.804Z,99590.66
2022-08-22T23:26:04.477Z,99600.97
2022-08-22T23:28:31.253Z,99590.69
2022-08-22T23:31:08.274Z,99595.00
2022-08-22T23:33:35.364Z,99590.16
2022-08-22T23:36:02.046Z,99576.06
2022-08-22T23:38:28.704Z,99577.97
2022-08-22T23:40:55.398Z,99586.88
2022-08-22T23:43:22.195Z,99587.41
2022-08-22T23:45:48.810Z,99586.03
2022-08-22T23:48:15.495Z,99579.84
2022-08-22T23:50:42.131Z,99579.81
2022-08-22T23:53:08.857Z,99574.72
2022-08-22T23:55:36.153Z,99578.22
2022-08-22T23:58:02.874Z,99570.38
